createdAt,value
2018-03-17T00:01:25.489Z,6.97
2018-03-17T00:03:53.042Z,6.20
2018-03-17T00:06:20.537Z,6.30
2018-03-17T00:08:48.098Z,6.87
2018-03-17T00:11:15.581Z,6.33
2018-03-17T00:13:43.844Z,5.43
2018-03-17T00:16:11.350Z,6.53
2018-03-17T00:18:38.824Z,7.40
2018-03-17T00:21:06.365Z,6.10
2018-03-17T00:23:33.866Z,6.93
2018-03-17T00:26:01.356Z,6.33
2018-03-17T00:28:29.661Z,7.83
2018-03-17T00:30:57.168Z,5.67
2018-03-17T00:33:24.685Z,5.80
2018-03-17T00:35:52.171Z,7.97
2018-03-17T00:38:19.666Z,6.40
2018-03-17T00:40:47.944Z,5.40
2018-03-17T00:43:15.500Z,6.50
2018-03-17T00:45:43.751Z,6.93
2018-03-17T00:48:11.241Z,8.20
2018-03-17T00:50:38.807Z,7.00
2018-03-17T00:53:06.369Z,6.50
2018-03-17T00:55:33.868Z,6.03
2018-03-17T00:58:01.381Z,5.07
2018-03-17T01:00:29.004Z,6.33
2018-03-17T01:02:57.264Z,5.07
2018-03-17T01:05:24.744Z,6.70
2018-03-17T01:07:53.046Z,5.73
2018-03-17T01:10:20.535Z,5.30
2018-03-17T01:12:48.063Z,6.13
2018-03-17T01:15:15.559Z,6.70
2018-03-17T01:17:43.055Z,6.07
2018-03-17T01:20:10.578Z,6.17
2018-03-17T01:22:38.083Z,6.27
2018-03-17T01:25:05.593Z,6.00
2018-03-17T01:27:33.113Z,7.00
2018-03-17T01:30:00.613Z,5.97
2018-03-17T01:32:28.133Z,6.93
2018-03-17T01:34:55.635Z,6.73
2018-03-17T01:37:23.905Z,6.03
2018-03-17T01:39:52.190Z,7.90
2018-03-17T01:42:20.455Z,5.73
2018-03-17T01:44:48.737Z,7.63
2018-03-17T01:47:17.079Z,6.57
2018-03-17T01:49:44.573Z,8.90
2018-03-17T01:52:12.988Z,6.23
2018-03-17T01:54:40.475Z,9.40
2018-03-17T01:57:07.956Z,5.13
2018-03-17T01:59:36.218Z,5.57
2018-03-17T02:02:03.710Z,5.53
2018-03-17T02:04:31.199Z,6.17
2018-03-17T02:06:58.687Z,6.00
2018-03-17T02:09:26.210Z,6.40
2018-03-17T02:11:53.707Z,5.10
2018-03-17T02:14:22.009Z,5.80
2018-03-17T02:16:49.527Z,5.67
2018-03-17T02:19:17.812Z,5.73
2018-03-17T02:21:45.399Z,6.33
2018-03-17T02:24:12.886Z,6.00
2018-03-17T02:26:40.383Z,5.43
2018-03-17T02:29:07.877Z,5.97
2018-03-17T02:31:35.370Z,5.33
2018-03-17T02:34:02.877Z,5.90
2018-03-17T02:36:30.356Z,6.47
2018-03-17T02:38:57.841Z,5.83
2018-03-17T02:41:25.344Z,5.80
2018-03-17T02:43:52.832Z,5.77
2018-03-17T02:46:20.334Z,6.83
2018-03-17T02:48:48.649Z,4.93
2018-03-17T02:51:16.266Z,5.43
2018-03-17T02:53:44.441Z,7.00
2018-03-17T02:56:12.697Z,6.43
2018-03-17T02:58:40.177Z,6.77
2018-03-17T03:01:08.491Z,5.50
2018-03-17T03:03:35.977Z,6.10
2018-03-17T03:06:03.469Z,6.40
2018-03-17T03:08:31.801Z,6.20
2018-03-17T03:10:59.304Z,5.30
2018-03-17T03:13:27.577Z,6.27
2018-03-17T03:15:55.858Z,5.97
2018-03-17T03:18:24.128Z,6.87
2018-03-17T03:20:52.406Z,8.43
2018-03-17T03:23:20.685Z,6.77
2018-03-17T03:25:48.252Z,6.07
2018-03-17T03:28:15.759Z,6.77
2018-03-17T03:30:43.266Z,6.93
2018-03-17T03:33:11.632Z,5.93
2018-03-17T03:35:39.142Z,5.07
2018-03-17T03:38:06.625Z,7.50
2018-03-17T03:40:34.102Z,6.40
2018-03-17T03:43:02.501Z,6.20
2018-03-17T03:45:29.987Z,6.00
2018-03-17T03:47:57.483Z,6.00
2018-03-17T03:50:25.790Z,5.00
2018-03-17T03:52:53.305Z,6.03
2018-03-17T03:55:21.583Z,5.70
2018-03-17T03:57:49.986Z,6.47
2018-03-17T04:00:17.483Z,9.00
2018-03-17T04:02:45.023Z,6.10
2018-03-17T04:05:12.533Z,6.30
2018-03-17T04:07:40.823Z,5.20
2018-03-17T04:10:09.109Z,4.90
2018-03-17T04:12:36.591Z,8.80
2018-03-17T04:15:04.120Z,5.57
2018-03-17T04:17:31.771Z,5.23
2018-03-17T04:20:00.031Z,7.33
2018-03-17T04:22:28.307Z,5.03
2018-03-17T04:24:56.595Z,5.73
2018-03-17T04:27:24.089Z,5.77
2018-03-17T04:29:51.589Z,5.33
2018-03-17T04:32:19.179Z,5.57
2018-03-17T04:34:46.667Z,5.93
2018-03-17T04:37:14.163Z,5.40
2018-03-17T04:39:42.469Z,4.70
2018-03-17T04:42:09.969Z,5.43
2018-03-17T04:44:37.447Z,5.57
2018-03-17T04:47:04.946Z,5.63
2018-03-17T04:49:32.445Z,5.90
2018-03-17T04:51:59.932Z,5.17
2018-03-17T04:54:28.202Z,5.70
2018-03-17T04:56:56.474Z,4.97
2018-03-17T04:59:24.739Z,5.27
2018-03-17T05:01:52.247Z,5.07
2018-03-17T05:04:19.728Z,4.60
2018-03-17T05:06:47.229Z,5.33
2018-03-17T05:09:15.503Z,5.73
2018-03-17T05:11:43.786Z,6.23
2018-03-17T05:14:11.289Z,5.50
2018-03-17T05:16:38.901Z,6.20
2018-03-17T05:19:06.468Z,5.43
2018-03-17T05:21:34.041Z,7.17
2018-03-17T05:24:01.547Z,5.80
2018-03-17T05:26:29.031Z,5.67
2018-03-17T05:28:56.530Z,6.33
2018-03-17T05:31:24.107Z,6.47
2018-03-17T05:33:51.615Z,6.37
2018-03-17T05:36:19.127Z,6.30
2018-03-17T05:38:46.607Z,5.63
2018-03-17T05:41:14.893Z,5.63
2018-03-17T05:43:42.440Z,6.50
2018-03-17T05:46:10.693Z,6.10
2018-03-17T05:48:38.965Z,5.83
2018-03-17T05:51:06.554Z,6.10
2018-03-17T05:53:34.107Z,8.67
2018-03-17T05:56:02.364Z,6.37
2018-03-17T05:58:30.638Z,6.40
2018-03-17T06:00:58.915Z,5.90
2018-03-17T06:03:27.179Z,6.90
2018-03-17T06:05:54.716Z,6.60
2018-03-17T06:08:22.208Z,12.13
2018-03-17T06:10:50.502Z,5.80
2018-03-17T06:13:18.045Z,6.87
2018-03-17T06:15:46.326Z,7.37
2018-03-17T06:18:13.851Z,7.93
2018-03-17T06:20:41.359Z,6.03
2018-03-17T06:23:08.869Z,5.67
2018-03-17T06:25:36.343Z,5.40
2018-03-17T06:28:04.613Z,5.77
2018-03-17T06:30:32.885Z,7.37
2018-03-17T06:33:01.193Z,6.90
2018-03-17T06:35:28.742Z,7.10
2018-03-17T06:37:56.228Z,6.70
2018-03-17T06:40:23.746Z,7.53
2018-03-17T06:42:51.236Z,6.13
2018-03-17T06:45:18.761Z,7.37
2018-03-17T06:47:46.266Z,7.00
2018-03-17T06:50:14.342Z,7.30
2018-03-17T06:52:42.644Z,6.90
2018-03-17T06:55:10.925Z,8.80
2018-03-17T06:57:39.220Z,7.33
2018-03-17T07:00:06.733Z,7.67
2018-03-17T07:02:34.347Z,8.00
2018-03-17T07:05:01.875Z,8.97
2018-03-17T07:07:30.150Z,9.27
2018-03-17T07:09:58.441Z,7.97
2018-03-17T07:12:26.007Z,9.23
2018-03-17T07:14:53.516Z,9.80
2018-03-17T07:17:21.004Z,10.30
2018-03-17T07:19:49.287Z,11.30
2018-03-17T07:22:16.807Z,12.27
2018-03-17T07:24:44.415Z,10.80
2018-03-17T07:27:11.941Z,11.37
2018-03-17T07:29:40.249Z,12.23
2018-03-17T07:32:07.839Z,13.10
2018-03-17T07:34:35.308Z,12.13
2018-03-17T07:37:02.924Z,14.20
2018-03-17T07:39:30.481Z,12.83
2018-03-17T07:41:58.015Z,12.00
2018-03-17T07:44:26.286Z,12.30
2018-03-17T07:46:54.561Z,12.20
2018-03-17T07:49:22.849Z,13.07
2018-03-17T07:51:50.360Z,13.20
2018-03-17T07:54:17.888Z,13.03
2018-03-17T07:56:45.387Z,14.00
2018-03-17T07:59:12.965Z,14.40
2018-03-17T08:01:41.226Z,15.50
2018-03-17T08:04:09.508Z,14.07
2018-03-17T08:06:37.772Z,15.27
2018-03-17T08:09:06.064Z,16.07
2018-03-17T08:11:34.354Z,16.40
2018-03-17T08:14:01.865Z,18.83
2018-03-17T08:16:29.367Z,18.90
2018-03-17T08:18:56.874Z,21.90
2018-03-17T08:21:24.410Z,21.37
2018-03-17T08:23:51.907Z,21.40
2018-03-17T08:26:20.201Z,21.90
2018-03-17T08:28:48.460Z,22.90
2018-03-17T08:31:16.725Z,23.53
2018-03-17T08:33:44.237Z,31.70
2018-03-17T08:36:11.723Z,29.20
2018-03-17T08:38:39.259Z,27.33
2018-03-17T08:41:06.812Z,28.97
2018-03-17T08:43:34.331Z,31.63
2018-03-17T08:46:02.594Z,31.57
2018-03-17T08:48:30.843Z,33.07
2018-03-17T08:50:58.345Z,32.77
2018-03-17T08:53:25.919Z,32.70
2018-03-17T08:55:53.420Z,30.17
2018-03-17T08:58:20.927Z,34.57
2018-03-17T09:00:48.541Z,33.13
2018-03-17T09:03:16.138Z,31.17
2018-03-17T09:05:43.708Z,29.47
2018-03-17T09:08:11.222Z,29.67
2018-03-17T09:10:38.891Z,28.47
2018-03-17T09:13:07.177Z,30.63
2018-03-17T09:15:35.461Z,28.93
2018-03-17T09:18:14.389Z,26.80
2018-03-17T09:20:41.908Z,30.37
2018-03-17T09:23:09.398Z,32.30
2018-03-17T09:25:36.963Z,32.00
2018-03-17T09:28:04.450Z,31.20
2018-03-17T09:30:31.944Z,33.40
2018-03-17T09:33:00.226Z,28.80
2018-03-17T09:35:28.525Z,34.87
2018-03-17T09:37:56.162Z,32.63
2018-03-17T09:40:24.421Z,34.13
2018-03-17T09:42:52.005Z,33.07
2018-03-17T09:45:20.310Z,30.80
2018-03-17T09:47:47.840Z,32.20
2018-03-17T09:50:15.418Z,29.30
2018-03-17T09:52:42.996Z,28.30
2018-03-17T09:55:10.495Z,30.13
2018-03-17T09:57:38.811Z,26.00
2018-03-17T10:00:06.332Z,29.07
2018-03-17T10:02:34.597Z,30.43
2018-03-17T10:05:02.867Z,26.00
2018-03-17T10:07:30.363Z,27.23
2018-03-17T10:09:57.888Z,30.33
2018-03-17T10:12:26.156Z,26.90
2018-03-17T10:14:54.471Z,29.40
2018-03-17T10:17:21.967Z,26.57
2018-03-17T10:19:49.465Z,27.23
2018-03-17T10:22:17.739Z,26.70
2018-03-17T10:24:46.014Z,29.00
2018-03-17T10:27:14.257Z,28.33
2018-03-17T10:29:41.843Z,28.07
2018-03-17T10:32:10.105Z,28.07
2018-03-17T10:34:38.509Z,30.73
2018-03-17T10:37:06.009Z,30.97
2018-03-17T10:39:33.530Z,30.97
2018-03-17T10:42:01.047Z,25.73
2018-03-17T10:44:28.571Z,28.73
2018-03-17T10:46:56.097Z,26.80
2018-03-17T10:49:23.663Z,28.90
2018-03-17T10:51:51.161Z,30.47
2018-03-17T10:54:18.660Z,31.90
2018-03-17T10:56:46.168Z,32.90
2018-03-17T10:59:13.661Z,35.70
2018-03-17T11:01:41.944Z,38.83
2018-03-17T11:04:09.466Z,38.70
2018-03-17T11:06:36.969Z,42.50
2018-03-17T11:09:04.455Z,41.70
2018-03-17T11:11:32.180Z,38.57
2018-03-17T11:13:59.667Z,40.70
2018-03-17T11:16:27.165Z,48.13
2018-03-17T11:18:55.440Z,41.93
2018-03-17T11:21:22.943Z,48.17
2018-03-17T11:23:50.464Z,58.20
2018-03-17T11:26:18.749Z,56.43
2018-03-17T11:28:47.016Z,48.73
2018-03-17T11:31:15.368Z,56.97
2018-03-17T11:33:42.891Z,52.23
2018-03-17T11:36:10.476Z,57.70
2018-03-17T11:38:37.976Z,45.50
2018-03-17T11:41:06.249Z,52.90
2018-03-17T11:43:33.760Z,50.80
2018-03-17T11:46:01.259Z,65.87
2018-03-17T11:48:28.780Z,58.10
2018-03-17T11:50:56.282Z,57.33
2018-03-17T11:53:23.767Z,59.00
2018-03-17T11:55:51.273Z,55.53
2018-03-17T11:58:19.541Z,54.47
2018-03-17T12:00:47.068Z,49.97
2018-03-17T12:03:14.606Z,56.60
2018-03-17T12:05:42.117Z,50.57
2018-03-17T12:08:10.418Z,62.50
2018-03-17T12:10:37.941Z,58.60
2018-03-17T12:13:05.524Z,61.93
2018-03-17T12:15:33.769Z,52.20
2018-03-17T12:18:01.271Z,44.63
2018-03-17T12:20:28.805Z,54.50
2018-03-17T12:22:57.091Z,55.47
2018-03-17T12:25:24.582Z,50.73
2018-03-17T12:27:52.157Z,45.13
2018-03-17T12:30:19.782Z,46.13
2018-03-17T12:32:47.273Z,46.90
2018-03-17T12:35:14.805Z,41.90
2018-03-17T12:37:42.325Z,40.03
2018-03-17T12:40:10.590Z,41.93
2018-03-17T12:42:38.864Z,40.73
2018-03-17T12:45:07.124Z,44.27
2018-03-17T12:47:34.670Z,49.50
2018-03-17T12:50:02.160Z,44.40
2018-03-17T12:52:30.448Z,55.40
2018-03-17T12:54:57.958Z,45.50
2018-03-17T12:57:25.485Z,46.83
2018-03-17T12:59:53.007Z,48.10
2018-03-17T13:02:21.289Z,41.33
2018-03-17T13:04:49.584Z,44.90
2018-03-17T13:07:17.074Z,43.33
2018-03-17T13:09:44.606Z,45.43
2018-03-17T13:12:12.119Z,42.63
2018-03-17T13:14:40.396Z,52.57
2018-03-17T13:17:08.722Z,50.17
2018-03-17T13:19:36.348Z,50.97
2018-03-17T13:22:03.854Z,52.47
2018-03-17T13:24:31.357Z,45.97
2018-03-17T13:27:10.593Z,46.73
2018-03-17T13:29:38.154Z,56.80
2018-03-17T13:35:01.708Z,47.77
2018-03-17T13:37:37.848Z,47.47
2018-03-17T13:40:17.321Z,40.20
2018-03-17T13:42:45.603Z,45.37
2018-03-17T13:45:13.119Z,37.47
2018-03-17T13:47:40.633Z,34.67
2018-03-17T13:50:08.120Z,34.50
2018-03-17T13:52:35.661Z,31.33
2018-03-17T13:55:03.168Z,33.97
2018-03-17T13:57:31.441Z,36.33
2018-03-17T13:59:59.709Z,37.77
2018-03-17T14:02:28.133Z,34.43
2018-03-17T14:04:55.695Z,30.83
2018-03-17T14:07:23.193Z,35.80
2018-03-17T14:09:50.704Z,34.03
2018-03-17T14:12:18.280Z,29.80
2018-03-17T14:14:45.796Z,32.57
2018-03-17T14:17:14.078Z,33.77
2018-03-17T14:19:41.629Z,33.10
2018-03-17T14:22:09.191Z,31.83
2018-03-17T14:24:36.927Z,35.33
2018-03-17T14:27:05.242Z,29.47
2018-03-17T14:29:32.757Z,26.73
2018-03-17T14:32:01.099Z,29.40
2018-03-17T14:34:28.639Z,31.83
2018-03-17T14:36:56.229Z,32.53
2018-03-17T14:39:23.719Z,30.33
2018-03-17T14:41:52.005Z,31.77
2018-03-17T14:44:19.529Z,29.67
2018-03-17T14:46:47.064Z,27.07
2018-03-17T14:49:14.589Z,29.07
2018-03-17T14:51:42.080Z,27.87
2018-03-17T14:54:09.693Z,27.50
2018-03-17T14:56:37.198Z,29.20
2018-03-17T14:59:04.742Z,27.80
2018-03-17T15:01:32.243Z,31.60
2018-03-17T15:04:00.511Z,27.47
2018-03-17T15:06:28.801Z,27.47
2018-03-17T15:08:57.078Z,27.37
2018-03-17T15:11:25.356Z,27.07
2018-03-17T15:13:53.634Z,27.07
2018-03-17T15:16:21.163Z,28.13
2018-03-17T15:18:48.738Z,29.23
2018-03-17T15:21:17.028Z,25.00
2018-03-17T15:23:44.558Z,26.90
2018-03-17T15:26:12.822Z,24.43
2018-03-17T15:28:40.320Z,26.80
2018-03-17T15:31:07.827Z,28.43
2018-03-17T15:33:35.373Z,25.60
2018-03-17T15:36:02.875Z,28.10
2018-03-17T15:38:31.277Z,24.80
2018-03-17T15:40:58.773Z,25.80
2018-03-17T15:43:26.257Z,24.30
2018-03-17T15:45:54.536Z,25.83
2018-03-17T15:48:22.784Z,30.27
2018-03-17T15:50:50.307Z,26.17
2018-03-17T15:53:17.792Z,27.83
2018-03-17T15:55:45.390Z,28.57
2018-03-17T15:58:12.909Z,30.17
2018-03-17T16:00:40.456Z,26.43
2018-03-17T16:03:08.084Z,26.60
2018-03-17T16:05:35.595Z,29.67
2018-03-17T16:08:03.100Z,28.50
2018-03-17T16:10:30.607Z,25.30
2018-03-17T16:12:58.166Z,24.97
2018-03-17T16:15:25.620Z,27.77
2018-03-17T16:17:53.914Z,26.60
2018-03-17T16:20:22.205Z,24.60
2018-03-17T16:22:49.732Z,23.37
2018-03-17T16:25:17.219Z,27.23
2018-03-17T16:27:44.764Z,28.23
2018-03-17T16:30:12.303Z,27.07
2018-03-17T16:32:40.596Z,24.77
2018-03-17T16:35:08.106Z,25.37
2018-03-17T16:37:36.785Z,24.67
2018-03-17T16:40:04.276Z,25.20
2018-03-17T16:42:32.554Z,28.30
2018-03-17T16:45:00.829Z,25.07
2018-03-17T16:47:29.103Z,22.67
2018-03-17T16:49:57.402Z,22.33
2018-03-17T16:52:24.960Z,25.23
2018-03-17T16:54:52.486Z,25.70
2018-03-17T16:57:20.008Z,24.00
2018-03-17T16:59:48.290Z,27.70
2018-03-17T17:02:15.891Z,24.80
2018-03-17T17:04:44.161Z,23.60
2018-03-17T17:07:12.411Z,24.67
2018-03-17T17:09:39.949Z,23.80
2018-03-17T17:12:07.447Z,28.20
2018-03-17T17:14:35.710Z,23.67
2018-03-17T17:17:03.230Z,24.73
2018-03-17T17:19:30.725Z,22.77
2018-03-17T17:21:58.243Z,22.53
2018-03-17T17:24:26.496Z,23.60
2018-03-17T17:26:53.992Z,25.93
2018-03-17T17:29:21.529Z,25.87
2018-03-17T17:31:49.112Z,26.17
2018-03-17T17:34:16.626Z,24.13
2018-03-17T17:36:44.171Z,24.47
2018-03-17T17:39:11.682Z,25.83
2018-03-17T17:41:39.172Z,23.13
2018-03-17T17:44:07.448Z,27.00
2018-03-17T17:46:35.721Z,24.67
2018-03-17T17:49:04.044Z,27.03
2018-03-17T17:51:31.552Z,25.77
2018-03-17T17:53:59.832Z,28.27
2018-03-17T17:56:28.246Z,27.97
2018-03-17T17:58:55.821Z,26.93
2018-03-17T18:01:23.342Z,29.67
2018-03-17T18:03:50.868Z,50.30
2018-03-17T18:06:18.374Z,39.20
2018-03-17T18:08:45.877Z,25.43
2018-03-17T18:11:13.585Z,22.87
2018-03-17T18:13:41.141Z,22.30
2018-03-17T18:16:08.898Z,20.50
2018-03-17T18:18:36.441Z,19.57
2018-03-17T18:21:03.966Z,19.87
2018-03-17T18:23:31.579Z,19.73
2018-03-17T18:25:59.088Z,20.17
2018-03-17T18:28:26.632Z,23.17
2018-03-17T18:30:54.136Z,25.10
2018-03-17T18:33:21.688Z,27.80
2018-03-17T18:36:13.552Z,21.70
2018-03-17T18:38:41.861Z,24.63
2018-03-17T18:41:09.389Z,24.63
2018-03-17T18:43:36.911Z,26.13
2018-03-17T18:46:04.441Z,24.40
2018-03-17T18:48:32.719Z,22.07
2018-03-17T18:51:01.018Z,24.67
2018-03-17T18:53:28.589Z,25.47
2018-03-17T18:55:56.125Z,26.80
2018-03-17T18:58:23.653Z,26.40
2018-03-17T19:00:51.177Z,27.47
2018-03-17T19:03:18.694Z,27.53
2018-03-17T19:05:46.960Z,29.90
2018-03-17T19:08:15.249Z,28.40
2018-03-17T19:10:42.775Z,26.57
2018-03-17T19:13:10.270Z,28.03
2018-03-17T19:15:37.785Z,24.97
2018-03-17T19:18:05.383Z,25.73
2018-03-17T19:20:32.885Z,25.77
2018-03-17T19:23:00.403Z,26.10
2018-03-17T19:25:27.910Z,22.07
2018-03-17T19:27:55.504Z,26.50
2018-03-17T19:30:23.783Z,24.40
2018-03-17T19:32:51.329Z,23.73
2018-03-17T19:35:19.603Z,26.17
2018-03-17T19:37:47.874Z,25.33
2018-03-17T19:40:16.148Z,25.70
2018-03-17T19:42:43.693Z,22.53
2018-03-17T19:45:11.181Z,25.40
2018-03-17T19:47:38.718Z,22.40
2018-03-17T19:50:07.011Z,27.33
2018-03-17T19:52:34.574Z,25.20
2018-03-17T19:55:02.088Z,26.53
2018-03-17T19:57:29.605Z,23.70
2018-03-17T19:59:57.123Z,24.90
2018-03-17T20:02:25.401Z,24.20
2018-03-17T20:04:53.666Z,26.20
2018-03-17T20:07:22.068Z,23.93
2018-03-17T20:09:49.578Z,25.03
2018-03-17T20:12:17.105Z,30.10
2018-03-17T20:14:44.657Z,29.67
2018-03-17T20:17:12.189Z,28.23
2018-03-17T20:19:39.687Z,30.43
2018-03-17T20:22:07.185Z,29.13
2018-03-17T20:24:35.583Z,24.77
2018-03-17T20:27:03.079Z,33.77
2018-03-17T20:29:30.648Z,31.13
2018-03-17T20:31:58.388Z,30.00
2018-03-17T20:34:25.917Z,30.07
2018-03-17T20:36:53.475Z,32.13
2018-03-17T20:39:21.027Z,27.67
2018-03-17T20:41:49.278Z,28.07
2018-03-17T20:44:16.870Z,27.40
2018-03-17T20:46:44.375Z,26.80
2018-03-17T20:49:11.954Z,26.67
2018-03-17T20:51:40.255Z,28.00
2018-03-17T20:54:07.817Z,28.80
2018-03-17T20:56:35.315Z,30.30
2018-03-17T20:59:02.830Z,29.90
2018-03-17T21:01:30.373Z,27.70
2018-03-17T21:03:58.673Z,25.67
2018-03-17T21:06:26.190Z,27.70
2018-03-17T21:08:54.474Z,28.30
2018-03-17T21:11:22.745Z,31.30
2018-03-17T21:13:51.109Z,26.57
2018-03-17T21:16:18.605Z,30.77
2018-03-17T21:18:46.098Z,32.00
2018-03-17T21:21:13.610Z,23.90
2018-03-17T21:23:41.102Z,27.67
2018-03-17T21:26:08.624Z,28.37
2018-03-17T21:28:36.143Z,29.67
2018-03-17T21:31:03.640Z,28.83
2018-03-17T21:33:31.157Z,29.00
2018-03-17T21:35:58.647Z,27.37
2018-03-17T21:38:26.158Z,30.23
2018-03-17T21:40:53.714Z,31.50
2018-03-17T21:43:21.203Z,22.47
2018-03-17T21:45:49.493Z,32.67
2018-03-17T21:48:16.995Z,28.40
2018-03-17T21:50:44.497Z,30.30
2018-03-17T21:53:12.822Z,31.63
2018-03-17T21:55:40.327Z,33.00
2018-03-17T21:58:08.595Z,35.00
2018-03-17T22:00:36.916Z,34.53
2018-03-17T22:03:04.421Z,29.10
2018-03-17T22:05:31.918Z,36.37
2018-03-17T22:07:59.420Z,38.07
2018-03-17T22:10:27.034Z,35.67
2018-03-17T22:12:54.550Z,37.07
2018-03-17T22:15:22.843Z,37.40
2018-03-17T22:17:51.125Z,38.17
2018-03-17T22:20:18.707Z,39.20
2018-03-17T22:22:46.992Z,35.90
2018-03-17T22:25:14.483Z,35.50
2018-03-17T22:27:41.973Z,39.03
2018-03-17T22:30:09.498Z,36.90
2018-03-17T22:32:37.089Z,32.60
2018-03-17T22:35:04.593Z,34.37
2018-03-17T22:37:32.099Z,36.33
2018-03-17T22:39:59.613Z,36.67
2018-03-17T22:42:27.143Z,34.00
2018-03-17T22:44:55.623Z,33.47
2018-03-17T22:47:23.115Z,38.50
2018-03-17T22:49:50.642Z,37.07
2018-03-17T22:52:18.166Z,39.07
2018-03-17T22:54:45.699Z,33.03
2018-03-17T22:57:13.956Z,37.17
2018-03-17T22:59:41.674Z,33.97
2018-03-17T23:02:09.181Z,30.70
2018-03-17T23:04:36.706Z,29.17
2018-03-17T23:07:04.212Z,30.20
2018-03-17T23:09:32.489Z,34.07
2018-03-17T23:12:00.788Z,35.07
2018-03-17T23:14:44.166Z,34.83
2018-03-17T23:17:11.765Z,29.93
2018-03-17T23:19:39.247Z,33.50
2018-03-17T23:22:06.794Z,30.77
2018-03-17T23:24:34.332Z,32.80
2018-03-17T23:27:12.107Z,34.00
2018-03-17T23:29:40.385Z,33.77
2018-03-17T23:32:08.736Z,33.83
2018-03-17T23:34:36.239Z,34.37
2018-03-17T23:37:03.839Z,37.80
2018-03-17T23:39:31.362Z,32.97
2018-03-17T23:41:58.988Z,33.20
2018-03-17T23:44:27.303Z,34.17
2018-03-17T23:46:54.841Z,34.03
2018-03-17T23:49:23.119Z,30.13
2018-03-17T23:51:50.664Z,32.07
2018-03-17T23:54:18.955Z,32.40
2018-03-17T23:56:46.458Z,31.50
2018-03-17T23:59:13.968Z,32.70
